Time;durP1;ratioP1;P1;durP2;ratioP2;P2;SDS_P1;SDS_P2;PMS_P1;PMS_P2;Temp;Humidity;BMP_temperature;BMP_pressure;BME280_temperature;BME280_humidity;BME280_pressure;Samples;Min_cycle;Max_cycle;Signal;HPM_P1;HPM_P2
2022/09/24 00:02:11;;;;;;;7.17;4.78;;;;;;;10.44;78.02;100137.15;1748131;81;21673;-48
2022/09/24 00:04:38;;;;;;;8.83;5.25;;;;;;;10.43;78.07;100137.27;1751728;80;21110;-48
2022/09/24 00:07:04;;;;;;;8.63;4.87;;;;;;;10.40;78.20;100132.59;1746994;80;21107;-47
2022/09/24 00:09:31;;;;;;;7.47;4.97;;;;;;;10.42;78.22;100131.16;1737797;81;21003;-47
2022/09/24 00:11:59;;;;;;;7.12;4.95;;;;;;;10.49;78.05;100134.97;1745640;80;21144;-47
2022/09/24 00:14:25;;;;;;;9.43;5.78;;;;;;;10.52;77.83;100128.14;1750751;80;22470;-47
2022/09/24 00:16:52;;;;;;;10.03;5.35;;;;;;;10.52;77.80;100128.14;1753893;80;21068;-47
2022/09/24 00:19:19;;;;;;;9.38;5.35;;;;;;;10.50;77.92;100126.09;1748921;81;21200;-47
2022/09/24 00:21:46;;;;;;;6.83;4.78;;;;;;;10.53;77.93;100130.28;1748695;80;21637;-47
2022/09/24 00:26:48;;;;;;;8.75;5.28;;;;;;;10.58;77.79;100128.92;1752419;81;22079;-47
2022/09/24 00:26:49;;;;;;;9.40;5.83;;;;;;;10.61;77.52;100127.84;1739715;80;21064;-47
2022/09/24 00:29:22;;;;;;;8.80;5.78;;;;;;;10.58;77.37;100124.97;1749846;80;21091;-47
2022/09/24 00:31:49;;;;;;;9.25;5.37;;;;;;;10.54;77.43;100122.27;1750450;80;21062;-47
2022/09/24 00:34:17;;;;;;;7.83;5.33;;;;;;;10.53;77.49;100117.95;1750065;80;21134;-47
2022/09/24 00:36:45;;;;;;;9.23;5.55;;;;;;;10.58;77.36;100113.13;1744768;80;21145;-47
2022/09/24 00:39:13;;;;;;;10.15;5.65;;;;;;;10.62;77.29;100112.39;1745817;80;21066;-47
2022/09/24 00:41:45;;;;;;;8.30;5.55;;;;;;;10.58;77.21;100113.62;1744790;80;21066;-48
2022/09/24 00:44:40;;;;;;;9.45;5.45;;;;;;;10.54;77.31;100114.83;1744641;80;21158;-47
2022/09/24 00:47:31;;;;;;;8.28;5.20;;;;;;;10.53;77.37;100116.63;1734071;81;21139;-47
2022/09/24 00:50:11;;;;;;;8.10;5.55;;;;;;;10.59;77.19;100108.70;1746403;80;21044;-46
2022/09/24 00:52:59;;;;;;;6.80;5.12;;;;;;;10.59;77.10;100116.13;1686135;83;21124;-47
2022/09/24 00:55:26;;;;;;;8.33;5.50;;;;;;;10.57;77.19;100103.59;1676610;83;21122;-48
2022/09/24 00:57:56;;;;;;;8.60;5.20;;;;;;;10.53;77.19;100108.74;1699770;83;21120;-47
2022/09/24 01:00:22;;;;;;;7.35;4.80;;;;;;;10.56;77.13;100109.80;1702718;82;21103;-46
2022/09/24 01:02:53;;;;;;;10.15;4.97;;;;;;;10.60;76.85;100101.98;1702579;82;21148;-47
2022/09/24 01:05:19;;;;;;;8.58;5.80;;;;;;;10.63;76.78;100105.34;1704334;83;21059;-47
2022/09/24 01:07:50;;;;;;;7.60;4.97;;;;;;;10.62;76.81;100101.04;1704391;82;21113;-47
2022/09/24 01:10:46;;;;;;;10.65;4.55;;;;;;;10.58;76.72;100112.30;1699413;83;21079;-48
2022/09/24 01:12:55;;;;;;;10.48;4.65;;;;;;;10.57;76.58;100108.00;1704313;82;21064;-46
2022/09/24 01:15:33;;;;;;;6.72;4.50;;;;;;;10.59;76.47;100107.38;1725929;82;21161;-47
2022/09/24 01:18:08;;;;;;;7.65;4.40;;;;;;;10.59;76.34;100102.11;1755686;80;21512;-47
2022/09/24 01:20:58;;;;;;;8.83;5.67;;;;;;;10.55;76.32;100099.41;1756926;79;21053;-47
2022/09/24 01:23:54;;;;;;;6.67;4.62;;;;;;;10.50;76.35;100098.47;1753797;80;21054;-47
2022/09/24 01:26:41;;;;;;;7.13;4.47;;;;;;;10.47;76.34;100097.41;1761624;80;21514;-48
2022/09/24 01:29:33;;;;;;;6.87;4.85;;;;;;;10.52;76.31;100093.08;1761012;80;21088;-47
2022/09/24 01:32:23;;;;;;;9.10;4.20;;;;;;;10.53;76.19;100099.53;1751694;80;21004;-46
2022/09/24 01:34:54;;;;;;;9.28;4.60;;;;;;;10.50;76.05;100095.02;1725666;79;21140;-46
2022/09/24 01:37:21;;;;;;;6.25;3.85;;;;;;;10.45;75.97;100092.77;1757931;80;21126;-46
2022/09/24 01:39:48;;;;;;;6.03;3.92;;;;;;;10.46;75.86;100099.70;1761964;80;21534;-47
2022/09/24 01:42:14;;;;;;;7.22;4.33;;;;;;;10.53;75.35;100096.08;1759925;79;21164;-47
2022/09/24 01:44:43;;;;;;;7.42;4.30;;;;;;;10.53;75.21;100095.59;1762353;80;21043;-47
2022/09/24 01:47:14;;;;;;;9.53;4.33;;;;;;;10.50;75.32;100094.53;1763034;80;21087;-46
2022/09/24 01:49:40;;;;;;;7.08;4.10;;;;;;;10.45;75.41;100090.63;1761720;79;21015;-46
2022/09/24 01:52:09;;;;;;;6.33;3.90;;;;;;;10.46;75.40;100092.30;1757581;79;21980;-46
2022/09/24 01:54:41;;;;;;;6.60;3.72;;;;;;;10.51;75.24;100097.52;1761727;80;21126;-47
2022/09/24 01:57:14;;;;;;;8.95;4.35;;;;;;;10.52;75.08;100093.94;1758152;80;21179;-47
2022/09/24 01:59:45;;;;;;;6.22;3.72;;;;;;;10.50;75.15;100098.47;1760248;79;21669;-47
2022/09/24 02:02:17;;;;;;;6.15;3.60;;;;;;;10.46;75.34;100097.08;1761130;80;21094;-47
2022/09/24 02:04:46;;;;;;;8.85;3.83;;;;;;;10.46;75.30;100089.67;1755684;80;21549;-47
2022/09/24 02:07:23;;;;;;;6.87;4.28;;;;;;;10.47;75.12;100096.09;1766858;80;21074;-47
2022/09/24 02:09:49;;;;;;;7.17;4.33;;;;;;;10.47;75.11;100095.27;1762821;79;21530;-47
2022/09/24 02:12:36;;;;;;;7.83;4.47;;;;;;;10.45;75.38;100102.47;1762582;80;21074;-47
2022/09/24 02:15:10;;;;;;;8.15;3.42;;;;;;;10.41;75.46;100097.95;1734261;80;21098;-46
2022/09/24 02:17:38;;;;;;;9.73;4.22;;;;;;;10.39;75.44;100096.76;1759858;79;21074;-46
2022/09/24 02:20:10;;;;;;;6.90;3.95;;;;;;;10.43;75.31;100096.50;1759333;79;21085;-48
2022/09/24 02:22:36;;;;;;;5.55;3.47;;;;;;;10.44;75.40;100102.09;1758829;80;21045;-46
2022/09/24 02:25:04;;;;;;;6.25;3.83;;;;;;;10.38;75.47;100102.14;1765141;80;21533;-46
2022/09/24 02:27:32;;;;;;;9.28;3.50;;;;;;;10.34;75.49;100105.52;1759494;80;21126;-46
2022/09/24 02:29:58;;;;;;;6.80;3.33;;;;;;;10.35;75.58;100103.71;1764135;80;21102;-46
2022/09/24 02:32:27;;;;;;;5.72;3.70;;;;;;;10.38;75.41;100106.09;1766963;80;21218;-46
2022/09/24 02:34:58;;;;;;;6.17;3.80;;;;;;;10.39;75.48;100109.09;1763259;80;21107;-47
2022/09/24 02:37:25;;;;;;;6.72;4.00;;;;;;;10.38;75.55;100104.77;1776020;79;21129;-47
2022/09/24 02:39:51;;;;;;;6.60;4.22;;;;;;;10.33;75.71;100104.33;1763148;79;21125;-46
2022/09/24 02:42:18;;;;;;;5.83;3.40;;;;;;;10.32;75.74;100103.96;1765840;80;21587;-46
2022/09/24 02:44:46;;;;;;;6.83;3.85;;;;;;;10.35;75.70;100108.97;1756937;79;21140;-46
2022/09/24 02:47:13;;;;;;;13.28;3.85;;;;;;;10.38;75.70;100103.45;1756409;80;21047;-47
2022/09/24 02:49:39;;;;;;;8.38;4.28;;;;;;;10.37;75.78;100108.35;1760677;80;21143;-46
2022/09/24 02:52:05;;;;;;;6.95;4.28;;;;;;;10.35;75.87;100106.34;1758949;80;21070;-47
2022/09/24 02:54:33;;;;;;;5.35;3.27;;;;;;;10.37;75.88;100107.89;1765152;80;21081;-46
2022/09/24 02:56:59;;;;;;;7.35;4.03;;;;;;;10.45;75.73;100117.75;1772455;80;21294;-46
2022/09/24 02:59:26;;;;;;;5.92;3.90;;;;;;;10.47;75.53;100117.63;1761292;80;21057;-47
2022/09/24 03:01:52;;;;;;;7.70;4.05;;;;;;;10.40;75.52;100123.39;1751147;80;21089;-47
2022/09/24 03:04:19;;;;;;;6.25;3.98;;;;;;;10.34;75.68;100116.03;1759788;80;21043;-46
2022/09/24 03:06:45;;;;;;;9.30;4.15;;;;;;;10.36;75.74;100121.17;1757454;80;21499;-46
2022/09/24 03:09:12;;;;;;;5.97;3.85;;;;;;;10.41;75.53;100115.05;1764775;80;21764;-47
2022/09/24 03:11:39;;;;;;;6.72;4.42;;;;;;;10.49;75.43;100116.55;1765721;80;21529;-46
2022/09/24 03:14:06;;;;;;;7.03;4.47;;;;;;;10.48;74.98;100117.50;1761718;80;21040;-47
2022/09/24 03:16:33;;;;;;;7.03;4.03;;;;;;;10.40;74.93;100114.67;1759231;80;21070;-47
2022/09/24 03:19:00;;;;;;;8.70;4.33;;;;;;;10.37;75.17;100117.09;1763017;80;21486;-47
2022/09/24 03:21:27;;;;;;;6.47;4.45;;;;;;;10.46;75.12;100122.06;1759112;80;21892;-47
2022/09/24 03:23:54;;;;;;;7.20;4.62;;;;;;;10.46;74.96;100119.44;1766399;80;21112;-46
2022/09/24 03:29:04;;;;;;;7.00;4.60;;;;;;;10.52;75.25;100111.50;1803757;78;22677;-47
2022/09/24 03:31:31;;;;;;;6.65;4.70;;;;;;;10.58;74.79;100121.52;1785786;80;21280;-47
2022/09/24 03:33:58;;;;;;;8.00;4.50;;;;;;;10.63;74.61;100120.64;1782762;78;21116;-47
2022/09/24 03:36:25;;;;;;;7.97;4.83;;;;;;;10.67;74.48;100121.22;1780921;80;21069;-48
2022/09/24 03:38:55;;;;;;;11.65;4.78;;;;;;;10.70;74.45;100119.64;1782980;78;21252;-48
2022/09/24 03:41:24;;;;;;;6.72;4.28;;;;;;;10.70;74.42;100123.09;1776408;80;21102;-47
2022/09/24 03:43:50;;;;;;;6.83;4.67;;;;;;;10.73;74.25;100124.66;1773551;79;21043;-48
2022/09/24 03:46:18;;;;;;;7.45;4.62;;;;;;;10.76;74.13;100120.45;1773854;78;21118;-47
2022/09/24 03:48:46;;;;;;;7.22;4.53;;;;;;;10.76;74.00;100121.27;1774525;78;21043;-47
2022/09/24 03:51:17;;;;;;;8.43;5.15;;;;;;;10.75;74.13;100122.23;1758547;78;21536;-48
2022/09/24 03:53:43;;;;;;;7.17;4.72;;;;;;;10.71;74.10;100124.78;1768014;78;21073;-47
2022/09/24 03:56:10;;;;;;;8.13;4.50;;;;;;;10.68;74.08;100122.89;1771260;78;21051;-47
2022/09/24 03:58:38;;;;;;;8.53;5.25;;;;;;;10.71;74.12;100119.52;1767572;78;21127;-47
2022/09/24 04:01:05;;;;;;;6.62;4.62;;;;;;;10.74;73.96;100122.35;1774636;80;21089;-48
2022/09/24 04:03:32;;;;;;;6.85;4.70;;;;;;;10.68;74.06;100120.27;1777988;78;21089;-48
2022/09/24 04:05:58;;;;;;;7.42;4.37;;;;;;;10.62;74.25;100120.77;1774219;80;21149;-47
2022/09/24 04:08:25;;;;;;;7.33;4.17;;;;;;;10.57;74.21;100121.16;1769291;78;21066;-48
2022/09/24 04:10:54;;;;;;;6.30;3.92;;;;;;;10.52;74.24;100116.77;1767402;79;21662;-47
2022/09/24 04:13:20;;;;;;;6.25;4.20;;;;;;;10.44;74.48;100124.00;1767608;78;21105;-47
2022/09/24 04:15:49;;;;;;;6.75;4.80;;;;;;;10.37;74.70;100123.67;1763854;80;21070;-47
2022/09/24 04:18:15;;;;;;;8.40;4.72;;;;;;;10.31;74.85;100123.32;1770072;78;21057;-60
2022/09/24 04:20:42;;;;;;;7.17;3.77;;;;;;;10.27;75.03;100121.89;1774220;80;21093;-61
2022/09/24 04:23:09;;;;;;;6.35;4.10;;;;;;;10.30;75.06;100125.58;1772108;78;22121;-61
2022/09/24 04:25:36;;;;;;;9.38;3.77;;;;;;;10.29;75.09;100122.13;1774657;80;21121;-61
2022/09/24 04:28:05;;;;;;;7.15;3.77;;;;;;;10.25;75.20;100117.24;1767038;79;22221;-62
2022/09/24 04:30:33;;;;;;;6.78;3.90;;;;;;;10.22;75.31;100119.17;1725948;82;21004;-61
2022/09/24 04:33:01;;;;;;;5.65;3.27;;;;;;;10.21;75.29;100117.98;1766072;80;21165;-61
2022/09/24 04:35:29;;;;;;;7.55;3.87;;;;;;;10.27;75.22;100122.74;1766538;80;21265;-61
2022/09/24 04:37:56;;;;;;;6.03;3.25;;;;;;;10.28;75.06;100119.13;1765613;80;21553;-61
2022/09/24 04:40:23;;;;;;;5.45;3.25;;;;;;;10.30;75.24;100126.89;1766556;79;21011;-61
2022/09/24 04:42:49;;;;;;;6.42;3.62;;;;;;;10.29;75.17;100126.08;1766793;79;21375;-61
2022/09/24 04:45:19;;;;;;;7.90;3.77;;;;;;;10.28;75.07;100124.39;1767618;80;21143;-62
2022/09/24 04:47:51;;;;;;;6.92;3.52;;;;;;;10.29;74.98;100124.76;1769789;80;21216;-61
2022/09/24 04:50:15;;;;;;;6.58;3.52;;;;;;;10.29;75.00;100130.02;1767324;79;21078;-61
2022/09/24 04:52:42;;;;;;;7.28;3.92;;;;;;;10.31;75.29;100136.47;1758241;79;21055;-61
2022/09/24 04:55:09;;;;;;;7.90;4.03;;;;;;;10.29;75.36;100135.28;1762702;79;21087;-61
2022/09/24 04:57:36;;;;;;;5.35;2.98;;;;;;;10.34;75.53;100141.48;1767767;80;21069;-61
2022/09/24 05:00:08;;;;;;;5.95;3.15;;;;;;;10.44;75.13;100136.30;1770186;79;21232;-61
2022/09/24 05:02:35;;;;;;;5.70;3.52;;;;;;;10.50;75.04;100137.93;1754918;80;21107;-61
2022/09/24 05:05:02;;;;;;;7.75;3.70;;;;;;;10.55;75.08;100135.75;1761246;80;21110;-61
2022/09/24 05:07:28;;;;;;;10.00;3.87;;;;;;;10.58;74.78;100133.36;1758686;79;21438;-61
2022/09/24 05:09:56;;;;;;;7.72;3.35;;;;;;;10.55;74.20;100137.06;1763763;79;21043;-61
2022/09/24 05:12:22;;;;;;;9.48;3.75;;;;;;;10.52;74.16;100137.34;1756628;80;21116;-61
2022/09/24 05:14:49;;;;;;;5.05;3.05;;;;;;;10.51;74.38;100135.66;1762402;80;21122;-61
2022/09/24 05:17:16;;;;;;;6.03;3.47;;;;;;;10.50;74.54;100136.62;1759030;80;21605;-61
2022/09/24 05:19:43;;;;;;;6.85;3.22;;;;;;;10.49;74.71;100136.74;1762598;79;21050;-61
2022/09/24 05:22:09;;;;;;;5.37;2.95;;;;;;;10.49;74.86;100137.59;1759028;80;21020;-62
2022/09/24 05:24:38;;;;;;;7.53;3.60;;;;;;;10.54;74.64;100141.14;1766677;80;21175;-61
2022/09/24 05:27:10;;;;;;;7.35;3.42;;;;;;;10.56;74.53;100139.23;1760323;79;21110;-61
2022/09/24 05:29:39;;;;;;;5.67;3.27;;;;;;;10.55;74.66;100137.06;1756823;79;21019;-61
2022/09/24 05:32:12;;;;;;;5.97;3.33;;;;;;;10.52;74.79;100142.61;1755985;80;21015;-62
2022/09/24 05:34:40;;;;;;;5.53;2.80;;;;;;;10.54;74.65;100143.30;1755474;80;21058;-61
2022/09/24 05:37:06;;;;;;;5.47;3.15;;;;;;;10.60;74.52;100141.95;1757401;80;21090;-61
2022/09/24 05:39:33;;;;;;;7.20;3.42;;;;;;;10.64;74.29;100137.26;1753810;80;21098;-61
2022/09/24 05:42:00;;;;;;;5.17;2.90;;;;;;;10.63;74.07;100141.69;1755396;80;21074;-61
2022/09/24 05:44:27;;;;;;;6.70;3.40;;;;;;;10.61;74.20;100139.68;1753228;80;21129;-61
2022/09/24 05:46:53;;;;;;;7.62;3.27;;;;;;;10.64;74.11;100139.89;1762556;80;21122;-61
2022/09/24 05:49:19;;;;;;;5.92;3.15;;;;;;;10.74;73.85;100134.20;1757035;80;21271;-61
2022/09/24 05:51:49;;;;;;;6.03;3.83;;;;;;;10.83;73.79;100140.50;1756584;80;21569;-61
2022/09/24 05:54:17;;;;;;;5.75;3.08;;;;;;;10.83;73.39;100129.97;1741772;79;21062;-61
2022/09/24 05:56:43;;;;;;;7.08;3.25;;;;;;;10.80;73.30;100138.13;1753157;80;21434;-61
2022/09/24 05:59:11;;;;;;;5.65;3.25;;;;;;;10.78;73.32;100136.94;1739949;80;21066;-61
2022/09/24 06:01:38;;;;;;;5.60;2.75;;;;;;;10.84;73.27;100137.71;1742709;80;21227;-61
2022/09/24 06:04:04;;;;;;;6.65;3.10;;;;;;;10.92;73.24;100135.27;1756439;80;21090;-62
2022/09/24 06:06:31;;;;;;;6.70;3.17;;;;;;;10.99;73.18;100133.43;1749986;80;21444;-61
2022/09/24 06:08:57;;;;;;;5.72;2.83;;;;;;;11.03;72.96;100133.50;1755619;80;21054;-61
2022/09/24 06:11:24;;;;;;;5.53;2.87;;;;;;;11.05;72.63;100136.86;1757444;80;21081;-61
2022/09/24 06:13:51;;;;;;;5.55;2.90;;;;;;;11.13;72.23;100137.04;1756314;80;21076;-62
2022/09/24 06:16:18;;;;;;;6.83;3.08;;;;;;;11.19;71.88;100146.20;1757955;80;21074;-61
2022/09/24 06:18:45;;;;;;;4.65;2.67;;;;;;;11.17;71.70;100144.19;1755935;80;21069;-61
2022/09/24 06:21:14;;;;;;;6.50;3.00;;;;;;;11.12;71.72;100145.89;1753936;80;21061;-61
2022/09/24 06:23:41;;;;;;;5.12;2.70;;;;;;;11.10;72.06;100143.88;1756415;80;21107;-61
2022/09/24 06:26:10;;;;;;;5.10;2.92;;;;;;;11.11;71.44;100151.66;1754527;80;21183;-61
2022/09/24 06:28:38;;;;;;;6.70;3.30;;;;;;;11.16;71.65;100156.50;1758510;80;21078;-61
2022/09/24 06:31:06;;;;;;;6.10;2.77;;;;;;;11.21;71.52;100158.25;1754430;80;21055;-61
2022/09/24 06:33:33;;;;;;;5.62;2.90;;;;;;;11.19;71.07;100160.19;1759500;80;21067;-61
2022/09/24 06:36:01;;;;;;;5.50;2.95;;;;;;;11.21;71.26;100161.38;1754653;80;21020;-61
2022/09/24 06:38:28;;;;;;;5.50;2.90;;;;;;;11.28;71.17;100161.19;1758393;80;21055;-61
2022/09/24 06:41:02;;;;;;;6.12;3.08;;;;;;;11.34;70.41;100166.77;1753348;80;21048;-62
2022/09/24 06:43:29;;;;;;;6.08;3.17;;;;;;;11.34;70.29;100161.98;1749481;80;21078;-62
2022/09/24 06:45:57;;;;;;;6.47;3.58;;;;;;;11.34;69.59;100172.03;1754932;80;21145;-61
2022/09/24 06:48:23;;;;;;;5.67;3.00;;;;;;;11.32;69.52;100167.39;1754758;81;21019;-62
2022/09/24 06:50:50;;;;;;;5.30;2.75;;;;;;;11.39;69.48;100171.64;1754508;79;21101;-61
2022/09/24 06:53:17;;;;;;;5.12;2.42;;;;;;;11.48;68.81;100169.53;1757256;80;21545;-61
2022/09/24 06:55:44;;;;;;;5.35;2.40;;;;;;;11.50;68.59;100168.91;1750752;80;21062;-62
2022/09/24 06:58:15;;;;;;;6.22;2.80;;;;;;;11.51;68.34;100177.64;1756541;80;22297;-61
2022/09/24 07:00:42;;;;;;;8.30;3.08;;;;;;;11.55;68.48;100178.20;1752284;80;21066;-61
2022/09/24 07:03:15;;;;;;;5.50;2.60;;;;;;;11.55;67.80;100180.38;1757271;80;21250;-61
2022/09/24 07:05:41;;;;;;;5.55;2.75;;;;;;;11.61;66.87;100178.50;1752881;79;21004;-61
2022/09/24 07:08:08;;;;;;;5.37;2.83;;;;;;;11.60;66.93;100183.44;1757272;80;21061;-62
2022/09/24 07:10:34;;;;;;;5.72;3.15;;;;;;;11.57;66.95;100179.75;1756370;81;21154;-61
2022/09/24 07:13:02;;;;;;;5.40;2.60;;;;;;;11.54;67.34;100180.02;1761574;80;21224;-62
2022/09/24 07:15:30;;;;;;;5.90;2.83;;;;;;;11.50;67.20;100187.84;1754101;80;21879;-61
2022/09/24 07:17:57;;;;;;;5.35;2.65;;;;;;;11.51;67.59;100188.18;1755523;80;21324;-60
2022/09/24 07:20:27;;;;;;;7.25;3.45;;;;;;;11.57;67.31;100188.97;1753209;79;21109;-61
2022/09/24 07:22:53;;;;;;;5.28;3.10;;;;;;;11.60;67.17;100187.39;1759192;80;21390;-61
2022/09/24 07:25:19;;;;;;;4.97;2.60;;;;;;;11.63;66.60;100183.64;1757367;79;21009;-62
2022/09/24 07:27:45;;;;;;;5.97;3.02;;;;;;;11.68;66.99;100188.02;1752213;79;21122;-61
2022/09/24 07:30:12;;;;;;;4.95;2.52;;;;;;;11.77;66.70;100195.59;1757599;79;21150;-61
2022/09/24 07:32:39;;;;;;;5.12;2.45;;;;;;;11.84;65.99;100207.29;1756530;79;21557;-61
2022/09/24 07:35:07;;;;;;;5.33;2.80;;;;;;;11.94;65.93;100205.53;1760436;79;21079;-61
2022/09/24 07:37:33;;;;;;;5.83;2.45;;;;;;;12.05;65.98;100200.15;1761915;80;21129;-61
2022/09/24 07:40:00;;;;;;;5.42;2.67;;;;;;;12.14;65.59;100200.27;1757769;80;21257;-63
2022/09/24 07:42:28;;;;;;;5.80;3.12;;;;;;;12.20;64.43;100198.41;1755106;81;21019;-61
2022/09/24 07:44:58;;;;;;;4.60;2.25;;;;;;;12.19;64.40;100206.81;1754994;79;21128;-62
2022/09/24 07:47:24;;;;;;;4.80;2.45;;;;;;;12.19;64.88;100202.86;1756501;80;21078;-61
2022/09/24 07:49:51;;;;;;;5.15;2.95;;;;;;;12.25;64.68;100201.47;1762202;80;21159;-61
2022/09/24 07:52:17;;;;;;;6.45;2.80;;;;;;;12.38;64.55;100209.94;1753381;80;21601;-62
2022/09/24 07:54:44;;;;;;;9.68;3.02;;;;;;;12.43;64.54;100207.72;1750507;80;21045;-62
2022/09/24 07:57:14;;;;;;;4.65;2.15;;;;;;;12.50;63.69;100211.95;1763657;80;21542;-61
2022/09/24 07:59:43;;;;;;;5.92;3.20;;;;;;;12.53;63.82;100209.04;1768219;80;21578;-62
2022/09/24 08:02:15;;;;;;;5.47;2.45;;;;;;;12.56;63.54;100216.69;1759388;79;21110;-62
2022/09/24 08:04:43;;;;;;;5.67;2.83;;;;;;;12.54;63.57;100216.46;1755440;80;21114;-61
2022/09/24 08:07:11;;;;;;;5.60;2.72;;;;;;;12.49;63.42;100216.91;1754333;80;21051;-61
2022/09/24 08:09:38;;;;;;;5.62;2.40;;;;;;;12.54;63.51;100224.38;1756184;80;21521;-61
2022/09/24 08:12:06;;;;;;;5.50;2.80;;;;;;;12.53;62.75;100218.77;1757026;81;21085;-61
2022/09/24 08:14:32;;;;;;;5.70;2.72;;;;;;;12.53;62.90;100218.77;1759744;80;21110;-61
2022/09/24 08:17:00;;;;;;;5.50;2.67;;;;;;;12.52;61.91;100217.09;1760342;80;21096;-62
2022/09/24 08:19:30;;;;;;;5.00;2.75;;;;;;;12.53;61.75;100218.77;1756898;80;21035;-62
2022/09/24 08:21:57;;;;;;;5.47;2.40;;;;;;;12.51;61.60;100225.51;1743739;80;21024;-62
2022/09/24 08:24:23;;;;;;;5.58;2.22;;;;;;;12.53;61.59;100220.09;1762025;80;21098;-61
2022/09/24 08:26:50;;;;;;;5.28;1.98;;;;;;;12.58;61.13;100219.19;1754411;79;21130;-61
2022/09/24 08:29:17;;;;;;;4.08;2.17;;;;;;;12.66;61.28;100218.47;1762695;80;21128;-61
2022/09/24 08:31:43;;;;;;;4.20;1.95;;;;;;;12.77;60.88;100211.23;1747394;80;21569;-61
2022/09/24 08:34:10;;;;;;;6.12;2.40;;;;;;;12.87;61.47;100213.86;1745203;79;21052;-61
2022/09/24 08:36:36;;;;;;;4.97;2.30;;;;;;;12.95;61.11;100215.30;1762643;80;21043;-61
2022/09/24 08:39:03;;;;;;;4.92;2.45;;;;;;;13.00;60.50;100213.06;1757476;79;21051;-61
2022/09/24 08:41:38;;;;;;;4.78;2.15;;;;;;;13.02;60.65;100218.21;1751627;79;21086;-61
2022/09/24 08:47:33;;;;;;;4.70;2.10;;;;;;;13.00;60.17;100226.27;1758297;80;21012;-64
2022/09/24 08:50:23;;;;;;;4.97;2.35;;;;;;;13.09;59.72;100229.04;1765099;80;21127;-61
2022/09/24 08:53:05;;;;;;;4.35;1.70;;;;;;;13.18;58.86;100211.02;1763467;79;21024;-61
2022/09/24 08:55:40;;;;;;;4.45;1.90;;;;;;;13.27;57.75;100208.00;1764100;79;22139;-61
2022/09/24 08:58:32;;;;;;;5.28;2.00;;;;;;;13.34;57.15;100204.64;1744681;80;21070;-61
2022/09/24 09:01:23;;;;;;;4.03;2.02;;;;;;;13.40;57.86;100213.83;1764388;80;21094;-61
2022/09/24 09:04:25;;;;;;;6.22;1.65;;;;;;;13.51;58.11;100209.65;1757160;79;21177;-61
2022/09/24 09:07:13;;;;;;;5.03;2.17;;;;;;;13.63;58.09;100205.00;1756449;80;21535;-61
2022/09/24 09:09:50;;;;;;;4.67;2.00;;;;;;;13.71;57.11;100209.56;1756924;79;21091;-61
2022/09/24 09:12:31;;;;;;;4.35;1.70;;;;;;;13.67;55.98;100205.56;1756747;80;21066;-61
2022/09/24 09:15:13;;;;;;;3.83;1.62;;;;;;;13.66;56.45;100211.82;1756826;80;21086;-61
2022/09/24 09:17:57;;;;;;;4.42;1.75;;;;;;;13.69;56.54;100215.50;1766960;80;21374;-60
2022/09/24 09:20:40;;;;;;;6.87;1.95;;;;;;;13.72;56.06;100206.78;1761576;80;21058;-60
2022/09/24 09:23:19;;;;;;;4.12;2.00;;;;;;;13.74;55.95;100204.81;1762442;80;21092;-60
2022/09/24 09:25:55;;;;;;;4.20;1.95;;;;;;;13.73;56.15;100211.56;1755582;80;21520;-60
2022/09/24 09:28:21;;;;;;;11.10;5.92;;;;;;;13.64;56.08;100211.14;1742817;80;21026;-63
2022/09/24 09:31:28;;;;;;;4.70;1.98;;;;;;;13.54;56.91;100210.69;1759971;80;20976;-61
2022/09/24 09:34:07;;;;;;;4.65;1.98;;;;;;;13.46;56.63;100211.08;1763192;80;21039;-61
2022/09/24 09:36:45;;;;;;;5.40;1.80;;;;;;;13.36;56.10;100215.93;1759929;80;21393;-60
2022/09/24 09:39:38;;;;;;;5.47;2.00;;;;;;;13.28;56.33;100223.71;1754637;80;21046;-60
2022/09/24 09:42:22;;;;;;;5.55;1.92;;;;;;;13.23;56.40;100210.56;1756424;80;21050;-60
2022/09/24 09:44:48;;;;;;;5.22;1.92;;;;;;;13.17;56.92;100211.98;1755868;80;21109;-62
2022/09/24 09:47:23;;;;;;;5.17;2.12;;;;;;;13.15;57.39;100218.73;1757653;80;21012;-59
2022/09/24 09:49:52;;;;;;;4.47;1.70;;;;;;;13.14;57.13;100206.48;1755302;79;21314;-59
2022/09/24 09:52:25;;;;;;;3.70;1.62;;;;;;;13.14;57.13;100206.98;1765665;80;21035;-60
2022/09/24 09:54:52;;;;;;;3.62;1.42;;;;;;;13.12;57.54;100208.45;1753529;79;21081;-60
2022/09/24 09:57:23;;;;;;;5.35;1.80;;;;;;;13.15;57.50;100214.77;1757816;80;21151;-60
2022/09/24 09:59:52;;;;;;;4.65;2.02;;;;;;;13.10;57.11;100216.19;1757921;79;21601;-59
2022/09/24 10:02:30;;;;;;;5.03;2.00;;;;;;;13.09;57.67;100208.73;1770075;80;21260;-59
2022/09/24 10:05:04;;;;;;;4.92;2.10;;;;;;;13.09;57.96;100214.02;1758029;80;21041;-61
2022/09/24 10:07:31;;;;;;;5.20;1.97;;;;;;;13.15;57.91;100216.59;1759643;80;21492;-60
2022/09/24 10:10:22;;;;;;;5.90;1.85;;;;;;;13.19;58.68;100212.17;1740148;79;21309;-61
2022/09/24 10:12:56;;;;;;;4.60;1.72;;;;;;;13.30;58.78;100215.14;1759196;80;21105;-62
2022/09/24 10:15:23;;;;;;;4.85;2.05;;;;;;;13.48;57.73;100207.79;1751158;79;22489;-60
2022/09/24 10:17:53;;;;;;;5.92;1.90;;;;;;;13.50;57.51;100216.41;1759362;80;21367;-60
2022/09/24 10:20:28;;;;;;;5.20;2.20;;;;;;;13.48;58.82;100223.19;1757477;80;21063;-61
2022/09/24 10:23:02;;;;;;;3.05;1.20;;;;;;;13.42;60.94;100232.18;1757958;80;21022;-60
2022/09/24 10:25:30;;;;;;;2.67;0.90;;;;;;;13.25;59.68;100237.70;1767495;80;21109;-59
2022/09/24 10:31:00;;;;;;;3.50;1.12;;;;;;;12.67;58.97;100224.93;1759919;79;21089;-61
2022/09/24 10:33:39;;;;;;;3.55;1.00;;;;;;;12.39;60.77;100210.77;1759369;80;21087;-61
2022/09/24 10:36:21;;;;;;;4.03;1.30;;;;;;;12.23;61.94;100221.39;1767621;80;21550;-60
2022/09/24 10:38:48;;;;;;;3.33;1.27;;;;;;;12.21;63.52;100219.87;1772861;79;21140;-60
2022/09/24 10:41:27;;;;;;;2.90;1.10;;;;;;;12.23;64.60;100221.88;1763466;80;21126;-61
2022/09/24 10:43:56;;;;;;;3.05;1.32;;;;;;;12.26;65.38;100220.30;1771669;79;21055;-61
2022/09/24 10:46:43;;;;;;;3.90;1.37;;;;;;;12.34;66.00;100225.72;1763921;79;21054;-60
2022/09/24 10:49:25;;;;;;;5.83;1.95;;;;;;;12.40;66.33;100221.19;1765795;79;20960;-61
2022/09/24 10:52:23;;;;;;;3.55;1.45;;;;;;;12.48;66.51;100224.47;1770124;80;21529;-60
2022/09/24 10:55:16;;;;;;;5.30;1.87;;;;;;;12.59;66.81;100220.37;1761151;80;21765;-62
2022/09/24 10:58:17;;;;;;;5.83;2.30;;;;;;;12.66;67.66;100225.07;1750590;80;21059;-62
2022/09/24 11:00:52;;;;;;;4.33;2.10;;;;;;;12.66;68.11;100225.92;1768947;79;21695;-62
2022/09/24 11:03:44;;;;;;;5.15;2.10;;;;;;;12.66;68.62;100226.39;1766285;79;21067;-61
2022/09/24 11:06:25;;;;;;;5.40;2.30;;;;;;;12.66;68.59;100227.70;1764564;79;21085;-61
2022/09/24 11:09:24;;;;;;;4.90;2.10;;;;;;;12.74;68.82;100223.42;1763125;79;21083;-61
2022/09/24 11:12:01;;;;;;;4.28;2.10;;;;;;;12.91;68.24;100221.86;1669579;83;21044;-62
2022/09/24 11:15:00;;;;;;;;;;;;;;;13.04;68.43;100222.86;1752882;80;21063;-63
2022/09/24 11:17:50;;;;;;;4.65;2.02;;;;;;;13.27;67.09;100214.61;1773277;79;20207;-62
2022/09/24 11:20:38;;;;;;;4.83;2.30;;;;;;;13.47;66.47;100216.22;1768408;80;21057;-62
2022/09/24 11:23:22;;;;;;;4.40;2.10;;;;;;;13.64;65.49;100211.97;1763908;79;21079;-62
2022/09/24 11:26:10;;;;;;;4.97;1.95;;;;;;;13.76;64.28;100208.63;1766840;79;21120;-62
2022/09/24 11:29:06;;;;;;;5.03;2.40;;;;;;;13.83;63.44;100216.31;1771156;80;21726;-63
2022/09/24 11:32:12;;;;;;;4.15;1.75;;;;;;;13.89;63.82;100201.67;1764296;80;21062;-60
2022/09/24 11:34:51;;;;;;;3.63;1.57;;;;;;;14.03;63.58;100209.09;1759508;80;21478;-61
2022/09/24 11:37:56;;;;;;;3.42;1.42;;;;;;;14.08;58.69;100205.50;1767582;79;22828;-61
2022/09/24 11:41:13;;;;;;;3.75;1.47;;;;;;;14.01;58.75;100217.67;1752031;79;21067;-60
2022/09/24 11:44:00;;;;;;;3.98;1.62;;;;;;;14.05;58.39;100216.87;1764931;80;21634;-62
2022/09/24 11:46:46;;;;;;;4.40;1.40;;;;;;;14.16;58.87;100211.88;1763342;80;21098;-61
2022/09/24 11:49:34;;;;;;;3.80;1.62;;;;;;;14.22;57.93;100210.78;1764362;80;26761;-63
2022/09/24 11:52:12;;;;;;;3.50;1.22;;;;;;;14.18;56.59;100205.44;1737790;79;21147;-61
2022/09/24 11:55:12;;;;;;;4.72;1.50;;;;;;;14.11;57.02;100212.32;1766856;80;21482;-62
2022/09/24 11:57:48;;;;;;;3.65;1.12;;;;;;;14.02;55.07;100214.52;1764656;79;21109;-70